Nephi, UT

11:24 PM MDT on September 30, 2014 (GMT -0600)
MesoWest NEPHI UT US UPR | Change Station
CLOSE
Current Station
Personal Weather Station
Location: Nephi, UT
Elevation: 5088 ft
Nearby Weather Stations

Elev 5088 ft 39.68 °N, 111.84 °W | Updated 2 hours ago

Overcast
Overcast
53 °F
Feels Like 53 °F
N
Wind Variable Wind from North
Gusts 0.0 mph

Today
High -- | Low -- °F
--% Chance of Precip.
Yesterday
High -- | Low -- °F
Precip. -- in
7:22 AM 7:11 PM
Waxing Crescent, 44% visible
Pressure 29.95 in
Visibility 10.0 miles
Clouds Mostly Cloudy 6000 ft
Mostly Cloudy 8500 ft
Overcast 12000 ft
Dew Point Not available.
Humidity Not available.
Rainfall -999.00 in
Snow Depth 1 in , 1 in , 0 in
UV 0 out of 12
Pollen 3.70 out of 12
Air Quality Not available.
Flu Activity Not available.
METAR KPVU 010515Z AUTO 02004KT 10SM BKN060 BKN085 OVC120 12/07 A2995 RMK AO1

More Conditions Fewer Conditions

Pressure 29.95 in
Visibility 10.0 miles
Clouds Mostly Cloudy 6000 ft
Mostly Cloudy 8500 ft
Overcast 12000 ft
Dew Point Not available.
Humidity Not available.
Rainfall -999.00 in
Snow Depth 1 in , 1 in , 0 in
UV 0 out of 12
Pollen 3.70 out of 12
Air Quality Not available.
Flu Activity Not available.
METAR KPVU 010515Z AUTO 02004KT 10SM BKN060 BKN085 OVC120 12/07 A2995 RMK AO1

More Conditions Fewer Conditions

10-Day Weather Forecast

Almanac

Astronomy

Sep. 30, 2014 Rise Set
Actual Time 7:22 AM MDT 7:11 PM MDT
Civil Twilight 6:55 AM MDT 7:38 PM MDT
Nautical Twilight 6:24 AM MDT 8:09 PM MDT
Astronomical Twilight 5:52 AM MDT 8:40 PM MDT
Moon 1:33 PM MDT (9/30) 11:45 PM MDT (9/30)
Length of Visible Light 12h 42m
Length of Day
11h 48m
Tomorrow will be 2m 34s shorter.
Waxing Crescent, 44% of the Moon is Illuminated
Oct 1
Waxing Crescent
Oct 1
First Quarter
Oct 8
Full
Oct 15
Last Quarter
Oct 23
New

Yesterday's Extremes

State Highs State Lows

Community

WunderPhotos

Upload Photos

1,757,857 photos uploaded!

Nearby

Snow Depth

Station Depth Elevation
Cascade Mountain 1 in 7768 ft
Chalk Creek #1 1 in 9100 ft
Monte Cristo 0 in 8960 ft
Lasal Mountain 0 in 9850 ft
Donkey Reservoir 0 in 9800 ft

Earthquake Activity

City Distance Mag. Time & Date
No recent earthquake activity has been reported nearby.
Minimum magnitude displayed is 2.5.

Coastal Water Temperatures

Place Temperature
No Stations Reporting

Nearby Weather Stations